sensor_id;sensor_type;location;lat;lon;timestamp;P1;durP1;ratioP1;P2;durP2;ratioP2
12232;SDS011;6179;51.748;8.728;2024-03-23T00:52:34;13.77;;;1.70;;
12232;SDS011;6179;51.748;8.728;2024-03-23T00:58:35;4.00;;;1.70;;
12232;SDS011;6179;51.748;8.728;2024-03-23T01:04:35;11.63;;;2.17;;
12232;SDS011;6179;51.748;8.728;2024-03-23T01:10:36;4.27;;;1.37;;
12232;SDS011;6179;51.748;8.728;2024-03-23T01:16:37;7.30;;;1.47;;
12232;SDS011;6179;51.748;8.728;2024-03-23T01:22:37;2.70;;;1.67;;
12232;SDS011;6179;51.748;8.728;2024-03-23T01:28:38;7.60;;;1.60;;
12232;SDS011;6179;51.748;8.728;2024-03-23T01:34:38;2.97;;;1.10;;
12232;SDS011;6179;51.748;8.728;2024-03-23T01:40:39;6.80;;;1.53;;
12232;SDS011;6179;51.748;8.728;2024-03-23T01:46:39;6.33;;;1.33;;
12232;SDS011;6179;51.748;8.728;2024-03-23T01:52:41;22.70;;;2.87;;
12232;SDS011;6179;51.748;8.728;2024-03-23T01:58:42;11.63;;;1.53;;
12232;SDS011;6179;51.748;8.728;2024-03-23T02:04:42;8.27;;;1.80;;
12232;SDS011;6179;51.748;8.728;2024-03-23T02:10:43;6.90;;;1.80;;
12232;SDS011;6179;51.748;8.728;2024-03-23T02:16:44;4.73;;;1.83;;
12232;SDS011;6179;51.748;8.728;2024-03-23T02:22:51;15.83;;;2.80;;
12232;SDS011;6179;51.748;8.728;2024-03-23T02:28:53;4.13;;;2.07;;
12232;SDS011;6179;51.748;8.728;2024-03-23T02:34:53;9.50;;;2.97;;
12232;SDS011;6179;51.748;8.728;2024-03-23T02:40:54;13.00;;;2.60;;
12232;SDS011;6179;51.748;8.728;2024-03-23T02:46:55;10.83;;;2.13;;
12232;SDS011;6179;51.748;8.728;2024-03-23T02:52:55;4.77;;;1.10;;
12232;SDS011;6179;51.748;8.728;2024-03-23T02:58:56;4.97;;;1.30;;
12232;SDS011;6179;51.748;8.728;2024-03-23T03:04:57;7.70;;;1.80;;
12232;SDS011;6179;51.748;8.728;2024-03-23T03:10:57;2.50;;;0.73;;
12232;SDS011;6179;51.748;8.728;2024-03-23T03:16:58;2.53;;;1.07;;
12232;SDS011;6179;51.748;8.728;2024-03-23T03:22:59;3.53;;;1.73;;
12232;SDS011;6179;51.748;8.728;2024-03-23T03:28:59;21.20;;;1.27;;
12232;SDS011;6179;51.748;8.728;2024-03-23T03:35:00;6.50;;;1.00;;
12232;SDS011;6179;51.748;8.728;2024-03-23T03:41:02;6.90;;;1.30;;
12232;SDS011;6179;51.748;8.728;2024-03-23T03:47:03;7.30;;;1.27;;
12232;SDS011;6179;51.748;8.728;2024-03-23T03:53:05;5.70;;;0.97;;
12232;SDS011;6179;51.748;8.728;2024-03-23T03:59:06;2.90;;;1.10;;
12232;SDS011;6179;51.748;8.728;2024-03-23T04:05:07;0.73;;;0.73;;
12232;SDS011;6179;51.748;8.728;2024-03-23T04:11:08;2.40;;;0.90;;
12232;SDS011;6179;51.748;8.728;2024-03-23T04:17:08;11.50;;;1.00;;
12232;SDS011;6179;51.748;8.728;2024-03-23T04:23:09;4.00;;;1.40;;
12232;SDS011;6179;51.748;8.728;2024-03-23T04:29:10;4.97;;;1.13;;
12232;SDS011;6179;51.748;8.728;2024-03-23T04:35:10;13.97;;;1.50;;
12232;SDS011;6179;51.748;8.728;2024-03-23T04:41:11;2.50;;;0.53;;
12232;SDS011;6179;51.748;8.728;2024-03-23T04:47:11;3.57;;;0.87;;
12232;SDS011;6179;51.748;8.728;2024-03-23T04:53:12;20.63;;;0.60;;
12232;SDS011;6179;51.748;8.728;2024-03-23T04:59:12;12.60;;;1.00;;
12232;SDS011;6179;51.748;8.728;2024-03-23T05:05:13;7.37;;;0.80;;
12232;SDS011;6179;51.748;8.728;2024-03-23T05:11:14;3.13;;;1.03;;
12232;SDS011;6179;51.748;8.728;2024-03-23T05:17:15;1.70;;;0.50;;
12232;SDS011;6179;51.748;8.728;2024-03-23T05:23:16;5.43;;;1.47;;
12232;SDS011;6179;51.748;8.728;2024-03-23T05:29:16;3.50;;;1.53;;
12232;SDS011;6179;51.748;8.728;2024-03-23T05:35:17;6.43;;;0.60;;
12232;SDS011;6179;51.748;8.728;2024-03-23T05:41:18;5.50;;;1.07;;
12232;SDS011;6179;51.748;8.728;2024-03-23T05:47:18;4.73;;;0.80;;
12232;SDS011;6179;51.748;8.728;2024-03-23T05:53:19;5.70;;;1.30;;
12232;SDS011;6179;51.748;8.728;2024-03-23T05:59:21;7.20;;;0.90;;
12232;SDS011;6179;51.748;8.728;2024-03-23T06:05:22;6.27;;;0.60;;
12232;SDS011;6179;51.748;8.728;2024-03-23T06:11:23;4.73;;;0.70;;
12232;SDS011;6179;51.748;8.728;2024-03-23T06:17:24;7.73;;;1.37;;
12232;SDS011;6179;51.748;8.728;2024-03-23T06:23:24;3.37;;;0.97;;
12232;SDS011;6179;51.748;8.728;2024-03-23T06:29:25;1.67;;;0.60;;
12232;SDS011;6179;51.748;8.728;2024-03-23T06:35:26;3.50;;;0.90;;
12232;SDS011;6179;51.748;8.728;2024-03-23T06:41:26;3.27;;;0.93;;
12232;SDS011;6179;51.748;8.728;2024-03-23T06:47:27;4.20;;;0.93;;
12232;SDS011;6179;51.748;8.728;2024-03-23T06:53:28;10.50;;;1.83;;
12232;SDS011;6179;51.748;8.728;2024-03-23T06:59:28;7.27;;;1.07;;
12232;SDS011;6179;51.748;8.728;2024-03-23T07:05:29;1.70;;;1.13;;
12232;SDS011;6179;51.748;8.728;2024-03-23T07:11:29;6.20;;;0.60;;
12232;SDS011;6179;51.748;8.728;2024-03-23T07:17:30;6.13;;;0.80;;
12232;SDS011;6179;51.748;8.728;2024-03-23T07:23:32;4.70;;;1.53;;
12232;SDS011;6179;51.748;8.728;2024-03-23T07:29:34;10.40;;;1.37;;
12232;SDS011;6179;51.748;8.728;2024-03-23T07:35:34;3.70;;;1.20;;
12232;SDS011;6179;51.748;8.728;2024-03-23T07:41:35;13.80;;;2.80;;
12232;SDS011;6179;51.748;8.728;2024-03-23T07:47:35;4.93;;;3.17;;
12232;SDS011;6179;51.748;8.728;2024-03-23T07:53:36;10.03;;;3.00;;
12232;SDS011;6179;51.748;8.728;2024-03-23T07:59:37;10.83;;;3.93;;
12232;SDS011;6179;51.748;8.728;2024-03-23T08:05:38;13.23;;;4.90;;
12232;SDS011;6179;51.748;8.728;2024-03-23T08:11:39;9.73;;;4.47;;
12232;SDS011;6179;51.748;8.728;2024-03-23T08:17:39;23.93;;;5.87;;
12232;SDS011;6179;51.748;8.728;2024-03-23T08:23:40;33.37;;;8.13;;
12232;SDS011;6179;51.748;8.728;2024-03-23T08:29:40;16.53;;;7.87;;
12232;SDS011;6179;51.748;8.728;2024-03-23T08:35:41;17.57;;;5.80;;
12232;SDS011;6179;51.748;8.728;2024-03-23T08:41:42;25.57;;;6.70;;
12232;SDS011;6179;51.748;8.728;2024-03-23T08:47:46;22.87;;;7.40;;
12232;SDS011;6179;51.748;8.728;2024-03-23T08:53:46;15.93;;;6.27;;
12232;SDS011;6179;51.748;8.728;2024-03-23T08:59:47;12.13;;;5.43;;
12232;SDS011;6179;51.748;8.728;2024-03-23T09:05:47;13.90;;;5.80;;
12232;SDS011;6179;51.748;8.728;2024-03-23T09:11:48;17.40;;;6.30;;
12232;SDS011;6179;51.748;8.728;2024-03-23T09:17:49;12.87;;;6.17;;
12232;SDS011;6179;51.748;8.728;2024-03-23T09:23:50;23.87;;;4.10;;
12232;SDS011;6179;51.748;8.728;2024-03-23T09:29:50;11.40;;;4.30;;
12232;SDS011;6179;51.748;8.728;2024-03-23T09:35:51;8.97;;;4.00;;
12232;SDS011;6179;51.748;8.728;2024-03-23T09:41:55;9.27;;;3.93;;
12232;SDS011;6179;51.748;8.728;2024-03-23T09:47:56;17.90;;;3.50;;
12232;SDS011;6179;51.748;8.728;2024-03-23T09:53:58;10.13;;;2.30;;
12232;SDS011;6179;51.748;8.728;2024-03-23T09:59:58;7.43;;;3.50;;
12232;SDS011;6179;51.748;8.728;2024-03-23T10:06:02;9.80;;;3.20;;
12232;SDS011;6179;51.748;8.728;2024-03-23T10:12:10;11.87;;;2.90;;
12232;SDS011;6179;51.748;8.728;2024-03-23T10:18:20;6.60;;;3.10;;
12232;SDS011;6179;51.748;8.728;2024-03-23T10:24:21;7.23;;;2.63;;
12232;SDS011;6179;51.748;8.728;2024-03-23T10:30:22;3.93;;;1.17;;
12232;SDS011;6179;51.748;8.728;2024-03-23T10:36:27;13.93;;;1.73;;
12232;SDS011;6179;51.748;8.728;2024-03-23T10:42:28;1.83;;;1.20;;
12232;SDS011;6179;51.748;8.728;2024-03-23T10:48:29;4.47;;;0.60;;
12232;SDS011;6179;51.748;8.728;2024-03-23T10:54:30;10.03;;;0.60;;
12232;SDS011;6179;51.748;8.728;2024-03-23T11:00:32;5.50;;;0.60;;
12232;SDS011;6179;51.748;8.728;2024-03-23T11:06:34;0.50;;;0.40;;
12232;SDS011;6179;51.748;8.728;2024-03-23T11:12:35;2.40;;;1.00;;
12232;SDS011;6179;51.748;8.728;2024-03-23T11:18:35;1.73;;;0.60;;
12232;SDS011;6179;51.748;8.728;2024-03-23T11:25:20;2.90;;;0.93;;
12232;SDS011;6179;51.748;8.728;2024-03-23T11:31:22;10.17;;;0.63;;
12232;SDS011;6179;51.748;8.728;2024-03-23T11:37:24;5.47;;;0.90;;
12232;SDS011;6179;51.748;8.728;2024-03-23T11:43:24;6.57;;;1.23;;
12232;SDS011;6179;51.748;8.728;2024-03-23T11:49:28;1.60;;;1.10;;
12232;SDS011;6179;51.748;8.728;2024-03-23T11:55:29;4.23;;;1.40;;
12232;SDS011;6179;51.748;8.728;2024-03-23T12:01:30;2.73;;;1.17;;
12232;SDS011;6179;51.748;8.728;2024-03-23T12:07:31;17.67;;;2.43;;
12232;SDS011;6179;51.748;8.728;2024-03-23T12:13:32;3.97;;;1.83;;
12232;SDS011;6179;51.748;8.728;2024-03-23T12:19:33;4.93;;;3.23;;
12232;SDS011;6179;51.748;8.728;2024-03-23T12:25:37;4.27;;;2.40;;
12232;SDS011;6179;51.748;8.728;2024-03-23T12:31:41;4.60;;;2.40;;
12232;SDS011;6179;51.748;8.728;2024-03-23T12:37:41;14.83;;;3.30;;
12232;SDS011;6179;51.748;8.728;2024-03-23T12:43:43;6.00;;;3.50;;
12232;SDS011;6179;51.748;8.728;2024-03-23T12:49:44;1.47;;;0.60;;
12232;SDS011;6179;51.748;8.728;2024-03-23T12:55:44;1.83;;;0.80;;
12232;SDS011;6179;51.748;8.728;2024-03-23T13:01:45;1.03;;;0.40;;
12232;SDS011;6179;51.748;8.728;2024-03-23T13:07:45;1.03;;;0.50;;
12232;SDS011;6179;51.748;8.728;2024-03-23T13:13:46;1.17;;;0.67;;
12232;SDS011;6179;51.748;8.728;2024-03-23T13:19:47;2.03;;;0.40;;
12232;SDS011;6179;51.748;8.728;2024-03-23T13:25:54;0.40;;;0.40;;
12232;SDS011;6179;51.748;8.728;2024-03-23T13:31:55;1.33;;;0.40;;
12232;SDS011;6179;51.748;8.728;2024-03-23T13:37:56;0.40;;;0.40;;
12232;SDS011;6179;51.748;8.728;2024-03-23T13:43:57;5.83;;;0.40;;
12232;SDS011;6179;51.748;8.728;2024-03-23T13:49:58;2.70;;;0.70;;
12232;SDS011;6179;51.748;8.728;2024-03-23T13:55:59;2.47;;;0.40;;
12232;SDS011;6179;51.748;8.728;2024-03-23T14:02:00;9.40;;;1.83;;
12232;SDS011;6179;51.748;8.728;2024-03-23T14:08:00;1.23;;;0.77;;
12232;SDS011;6179;51.748;8.728;2024-03-23T14:14:01;2.20;;;1.00;;
12232;SDS011;6179;51.748;8.728;2024-03-23T14:20:01;4.77;;;0.70;;
12232;SDS011;6179;51.748;8.728;2024-03-23T14:26:05;12.70;;;0.90;;
12232;SDS011;6179;51.748;8.728;2024-03-23T14:32:06;1.40;;;0.60;;
12232;SDS011;6179;51.748;8.728;2024-03-23T14:38:06;2.43;;;0.67;;
12232;SDS011;6179;51.748;8.728;2024-03-23T14:44:07;1.80;;;0.70;;
12232;SDS011;6179;51.748;8.728;2024-03-23T14:50:08;0.57;;;0.57;;
12232;SDS011;6179;51.748;8.728;2024-03-23T14:56:11;2.47;;;0.63;;
12232;SDS011;6179;51.748;8.728;2024-03-23T15:02:15;0.47;;;0.47;;
12232;SDS011;6179;51.748;8.728;2024-03-23T15:08:16;1.00;;;0.90;;
12232;SDS011;6179;51.748;8.728;2024-03-23T15:14:17;2.00;;;0.80;;
12232;SDS011;6179;51.748;8.728;2024-03-23T15:20:17;0.97;;;0.93;;
12232;SDS011;6179;51.748;8.728;2024-03-23T15:26:18;7.70;;;3.37;;
12232;SDS011;6179;51.748;8.728;2024-03-23T15:32:19;3.87;;;2.20;;
12232;SDS011;6179;51.748;8.728;2024-03-23T15:38:19;0.80;;;0.70;;
12232;SDS011;6179;51.748;8.728;2024-03-23T15:44:20;17.63;;;0.80;;
12232;SDS011;6179;51.748;8.728;2024-03-23T15:50:21;5.30;;;1.87;;
12232;SDS011;6179;51.748;8.728;2024-03-23T15:56:21;3.60;;;1.07;;
12232;SDS011;6179;51.748;8.728;2024-03-23T16:02:22;0.90;;;0.60;;
12232;SDS011;6179;51.748;8.728;2024-03-23T16:08:23;1.43;;;0.83;;
12232;SDS011;6179;51.748;8.728;2024-03-23T16:14:24;1.13;;;0.50;;
12232;SDS011;6179;51.748;8.728;2024-03-23T16:20:25;3.80;;;1.00;;
12232;SDS011;6179;51.748;8.728;2024-03-23T16:26:25;2.40;;;0.70;;
12232;SDS011;6179;51.748;8.728;2024-03-23T16:32:26;3.70;;;0.77;;
12232;SDS011;6179;51.748;8.728;2024-03-23T16:38:29;0.50;;;0.50;;
12232;SDS011;6179;51.748;8.728;2024-03-23T16:44:32;4.17;;;0.70;;
12232;SDS011;6179;51.748;8.728;2024-03-23T16:50:35;2.77;;;0.87;;
12232;SDS011;6179;51.748;8.728;2024-03-23T16:56:35;3.33;;;1.17;;
12232;SDS011;6179;51.748;8.728;2024-03-23T17:02:36;0.63;;;0.63;;
12232;SDS011;6179;51.748;8.728;2024-03-23T17:08:39;4.57;;;0.67;;
12232;SDS011;6179;51.748;8.728;2024-03-23T17:14:39;12.23;;;0.80;;
12232;SDS011;6179;51.748;8.728;2024-03-23T17:20:40;4.70;;;0.93;;
12232;SDS011;6179;51.748;8.728;2024-03-23T17:26:41;3.07;;;0.60;;
12232;SDS011;6179;51.748;8.728;2024-03-23T17:32:42;3.90;;;0.50;;
12232;SDS011;6179;51.748;8.728;2024-03-23T17:38:43;2.43;;;0.83;;
12232;SDS011;6179;51.748;8.728;2024-03-23T17:44:44;2.53;;;0.67;;
12232;SDS011;6179;51.748;8.728;2024-03-23T17:50:45;3.97;;;1.50;;
12232;SDS011;6179;51.748;8.728;2024-03-23T17:56:45;1.13;;;0.80;;
12232;SDS011;6179;51.748;8.728;2024-03-23T18:02:48;0.90;;;0.60;;
12232;SDS011;6179;51.748;8.728;2024-03-23T18:08:49;0.90;;;0.60;;
12232;SDS011;6179;51.748;8.728;2024-03-23T18:14:50;3.17;;;1.30;;
12232;SDS011;6179;51.748;8.728;2024-03-23T18:20:51;3.03;;;1.53;;
12232;SDS011;6179;51.748;8.728;2024-03-23T18:26:52;4.30;;;1.90;;
12232;SDS011;6179;51.748;8.728;2024-03-23T18:32:52;2.50;;;1.10;;
12232;SDS011;6179;51.748;8.728;2024-03-23T18:38:53;9.40;;;1.00;;
12232;SDS011;6179;51.748;8.728;2024-03-23T18:44:56;4.53;;;1.00;;
12232;SDS011;6179;51.748;8.728;2024-03-23T18:51:01;2.30;;;0.43;;
12232;SDS011;6179;51.748;8.728;2024-03-23T18:57:02;2.43;;;1.00;;
12232;SDS011;6179;51.748;8.728;2024-03-23T19:03:03;0.40;;;0.40;;
12232;SDS011;6179;51.748;8.728;2024-03-23T19:09:04;7.53;;;0.53;;
12232;SDS011;6179;51.748;8.728;2024-03-23T19:15:08;1.73;;;0.53;;
12232;SDS011;6179;51.748;8.728;2024-03-23T19:21:09;4.40;;;0.63;;
12232;SDS011;6179;51.748;8.728;2024-03-23T19:27:09;1.07;;;0.80;;
12232;SDS011;6179;51.748;8.728;2024-03-23T19:33:10;0.70;;;0.70;;
12232;SDS011;6179;51.748;8.728;2024-03-23T19:39:10;1.07;;;0.90;;
12232;SDS011;6179;51.748;8.728;2024-03-23T19:45:12;7.30;;;1.03;;
12232;SDS011;6179;51.748;8.728;2024-03-23T19:51:15;6.23;;;1.57;;
12232;SDS011;6179;51.748;8.728;2024-03-23T19:57:16;0.70;;;0.60;;
12232;SDS011;6179;51.748;8.728;2024-03-23T20:03:17;15.63;;;1.50;;
12232;SDS011;6179;51.748;8.728;2024-03-23T20:09:17;1.53;;;1.17;;
12232;SDS011;6179;51.748;8.728;2024-03-23T20:15:18;1.27;;;1.00;;
12232;SDS011;6179;51.748;8.728;2024-03-23T20:21:18;3.97;;;1.67;;
12232;SDS011;6179;51.748;8.728;2024-03-23T20:27:19;0.87;;;0.87;;
12232;SDS011;6179;51.748;8.728;2024-03-23T20:33:20;2.40;;;2.20;;
12232;SDS011;6179;51.748;8.728;2024-03-23T20:39:20;1.23;;;1.23;;
12232;SDS011;6179;51.748;8.728;2024-03-23T20:45:21;2.63;;;1.43;;
12232;SDS011;6179;51.748;8.728;2024-03-23T20:51:21;5.90;;;1.27;;
12232;SDS011;6179;51.748;8.728;2024-03-23T20:57:22;2.30;;;0.97;;
12232;SDS011;6179;51.748;8.728;2024-03-23T21:03:23;3.30;;;1.03;;
12232;SDS011;6179;51.748;8.728;2024-03-23T21:09:23;4.10;;;1.67;;
12232;SDS011;6179;51.748;8.728;2024-03-23T21:15:24;1.13;;;1.03;;
12232;SDS011;6179;51.748;8.728;2024-03-23T21:21:25;2.20;;;1.77;;
12232;SDS011;6179;51.748;8.728;2024-03-23T21:27:27;1.73;;;1.40;;
12232;SDS011;6179;51.748;8.728;2024-03-23T21:33:28;2.87;;;0.97;;
12232;SDS011;6179;51.748;8.728;2024-03-23T21:39:28;2.07;;;1.97;;
12232;SDS011;6179;51.748;8.728;2024-03-23T21:45:29;2.00;;;1.77;;
12232;SDS011;6179;51.748;8.728;2024-03-23T21:51:29;3.10;;;2.00;;
12232;SDS011;6179;51.748;8.728;2024-03-23T21:57:32;2.00;;;1.40;;
12232;SDS011;6179;51.748;8.728;2024-03-23T22:03:33;4.17;;;1.73;;
12232;SDS011;6179;51.748;8.728;2024-03-23T22:09:33;8.07;;;1.53;;
12232;SDS011;6179;51.748;8.728;2024-03-23T22:15:34;10.03;;;1.97;;
12232;SDS011;6179;51.748;8.728;2024-03-23T22:21:35;3.13;;;1.63;;
12232;SDS011;6179;51.748;8.728;2024-03-23T22:27:35;6.83;;;3.27;;
12232;SDS011;6179;51.748;8.728;2024-03-23T22:33:36;4.00;;;2.70;;
12232;SDS011;6179;51.748;8.728;2024-03-23T22:39:36;4.23;;;3.03;;
12232;SDS011;6179;51.748;8.728;2024-03-23T22:45:38;4.00;;;2.67;;
12232;SDS011;6179;51.748;8.728;2024-03-23T22:51:38;4.80;;;3.53;;
12232;SDS011;6179;51.748;8.728;2024-03-23T22:57:39;7.70;;;2.70;;
12232;SDS011;6179;51.748;8.728;2024-03-23T23:03:40;11.23;;;3.27;;
12232;SDS011;6179;51.748;8.728;2024-03-23T23:09:40;4.67;;;2.07;;
12232;SDS011;6179;51.748;8.728;2024-03-23T23:15:41;11.70;;;3.13;;
12232;SDS011;6179;51.748;8.728;2024-03-23T23:21:43;4.83;;;3.53;;
12232;SDS011;6179;51.748;8.728;2024-03-23T23:27:44;3.73;;;2.50;;
12232;SDS011;6179;51.748;8.728;2024-03-23T23:33:45;7.73;;;2.33;;
12232;SDS011;6179;51.748;8.728;2024-03-23T23:39:45;6.00;;;3.43;;
12232;SDS011;6179;51.748;8.728;2024-03-23T23:45:46;19.37;;;3.00;;
12232;SDS011;6179;51.748;8.728;2024-03-23T23:51:46;2.70;;;2.50;;
12232;SDS011;6179;51.748;8.728;2024-03-23T23:57:47;6.67;;;3.17;;
